Hebgen Lake, Montana
Current Conditions -  °F | °C
As of 5:56 PM on Saturday 22 Nov 2014 (Local Time) from KDIJ Reporting Station
Clear Clear  
Wind Chill: 15°   Ceiling: Unl
Heat Index: 25°   Visibility: 10mi
Dew Point: 22°   Wind: 10mph
Humidity: 88%   Direction: 60°ENE
Pressure: 29.71"   Gusts: NA
Location:  44.68°N, 111.12°W
Report Text: KDIJ 230056Z AUTO 06009KT 10SM CLR M04/M06 A2971 RMK AO2 T10381055 SNE15 P0001 SLP059
Loading
Personal Weather Stations






























Interactive Weather Map New forecast layout! Learn more

10-Day Weather Forecast

Advertisements
Track Severe Weather on mobile